sensor_id;sensor_type;location;lat;lon;timestamp;P1;durP1;ratioP1;P2;durP2;ratioP2
15635;SDS011;7917;50.818;6.972;2023-02-08T00:00:53;21.27;;;12.80;;
15635;SDS011;7917;50.818;6.972;2023-02-08T00:03:20;22.80;;;13.15;;
15635;SDS011;7917;50.818;6.972;2023-02-08T00:05:47;20.90;;;13.05;;
15635;SDS011;7917;50.818;6.972;2023-02-08T00:08:15;23.73;;;13.18;;
15635;SDS011;7917;50.818;6.972;2023-02-08T00:10:54;23.00;;;12.80;;
15635;SDS011;7917;50.818;6.972;2023-02-08T00:13:22;38.63;;;15.10;;
15635;SDS011;7917;50.818;6.972;2023-02-08T00:15:51;19.75;;;12.68;;
15635;SDS011;7917;50.818;6.972;2023-02-08T00:18:19;21.80;;;11.95;;
15635;SDS011;7917;50.818;6.972;2023-02-08T00:20:58;23.00;;;12.40;;
15635;SDS011;7917;50.818;6.972;2023-02-08T00:23:44;20.30;;;11.43;;
15635;SDS011;7917;50.818;6.972;2023-02-08T00:26:11;19.17;;;11.05;;
15635;SDS011;7917;50.818;6.972;2023-02-08T00:28:39;19.25;;;11.35;;
15635;SDS011;7917;50.818;6.972;2023-02-08T00:31:06;18.77;;;10.82;;
15635;SDS011;7917;50.818;6.972;2023-02-08T00:33:33;15.65;;;10.27;;
15635;SDS011;7917;50.818;6.972;2023-02-08T00:36:04;19.48;;;11.15;;
15635;SDS011;7917;50.818;6.972;2023-02-08T00:38:33;20.67;;;11.63;;
15635;SDS011;7917;50.818;6.972;2023-02-08T00:41:02;18.73;;;10.75;;
15635;SDS011;7917;50.818;6.972;2023-02-08T00:43:29;18.70;;;11.05;;
15635;SDS011;7917;50.818;6.972;2023-02-08T00:45:58;19.52;;;10.73;;
15635;SDS011;7917;50.818;6.972;2023-02-08T00:48:25;23.48;;;10.85;;
15635;SDS011;7917;50.818;6.972;2023-02-08T00:50:57;20.98;;;11.70;;
15635;SDS011;7917;50.818;6.972;2023-02-08T00:53:28;18.95;;;10.38;;
15635;SDS011;7917;50.818;6.972;2023-02-08T00:55:55;21.60;;;11.45;;
15635;SDS011;7917;50.818;6.972;2023-02-08T00:58:23;18.67;;;11.30;;
15635;SDS011;7917;50.818;6.972;2023-02-08T01:00:51;17.45;;;10.75;;
15635;SDS011;7917;50.818;6.972;2023-02-08T01:06:05;20.48;;;10.63;;
15635;SDS011;7917;50.818;6.972;2023-02-08T01:08:34;17.52;;;10.57;;
15635;SDS011;7917;50.818;6.972;2023-02-08T01:11:02;17.20;;;10.63;;
15635;SDS011;7917;50.818;6.972;2023-02-08T01:13:32;19.55;;;11.02;;
15635;SDS011;7917;50.818;6.972;2023-02-08T01:16:09;20.13;;;11.32;;
15635;SDS011;7917;50.818;6.972;2023-02-08T01:18:37;20.15;;;10.70;;
15635;SDS011;7917;50.818;6.972;2023-02-08T01:21:14;19.88;;;11.93;;
15635;SDS011;7917;50.818;6.972;2023-02-08T01:23:42;18.55;;;11.05;;
15635;SDS011;7917;50.818;6.972;2023-02-08T01:26:10;19.58;;;12.27;;
15635;SDS011;7917;50.818;6.972;2023-02-08T01:28:40;19.88;;;11.15;;
15635;SDS011;7917;50.818;6.972;2023-02-08T01:31:11;22.25;;;11.60;;
15635;SDS011;7917;50.818;6.972;2023-02-08T01:33:39;18.70;;;11.98;;
15635;SDS011;7917;50.818;6.972;2023-02-08T01:36:06;21.85;;;11.82;;
15635;SDS011;7917;50.818;6.972;2023-02-08T01:38:34;23.73;;;12.40;;
15635;SDS011;7917;50.818;6.972;2023-02-08T01:41:02;27.30;;;12.65;;
15635;SDS011;7917;50.818;6.972;2023-02-08T01:43:30;22.08;;;12.02;;
15635;SDS011;7917;50.818;6.972;2023-02-08T01:46:17;24.10;;;11.77;;
15635;SDS011;7917;50.818;6.972;2023-02-08T01:48:43;23.27;;;12.50;;
15635;SDS011;7917;50.818;6.972;2023-02-08T01:51:12;21.20;;;11.98;;
15635;SDS011;7917;50.818;6.972;2023-02-08T01:53:44;20.88;;;12.23;;
15635;SDS011;7917;50.818;6.972;2023-02-08T01:56:14;20.38;;;11.90;;
15635;SDS011;7917;50.818;6.972;2023-02-08T01:58:55;21.00;;;11.13;;
15635;SDS011;7917;50.818;6.972;2023-02-08T02:01:25;23.05;;;12.18;;
15635;SDS011;7917;50.818;6.972;2023-02-08T02:03:53;19.42;;;10.88;;
15635;SDS011;7917;50.818;6.972;2023-02-08T02:06:21;19.67;;;10.90;;
15635;SDS011;7917;50.818;6.972;2023-02-08T02:08:52;21.42;;;10.88;;
15635;SDS011;7917;50.818;6.972;2023-02-08T02:11:26;19.58;;;11.25;;
15635;SDS011;7917;50.818;6.972;2023-02-08T02:13:54;18.50;;;9.93;;
15635;SDS011;7917;50.818;6.972;2023-02-08T02:16:21;17.17;;;10.55;;
15635;SDS011;7917;50.818;6.972;2023-02-08T02:18:49;18.13;;;10.43;;
15635;SDS011;7917;50.818;6.972;2023-02-08T02:21:23;17.85;;;10.98;;
15635;SDS011;7917;50.818;6.972;2023-02-08T02:24:29;18.15;;;10.13;;
15635;SDS011;7917;50.818;6.972;2023-02-08T02:27:28;20.25;;;10.73;;
15635;SDS011;7917;50.818;6.972;2023-02-08T02:32:59;23.13;;;11.38;;
15635;SDS011;7917;50.818;6.972;2023-02-08T02:35:59;21.42;;;10.82;;
15635;SDS011;7917;50.818;6.972;2023-02-08T02:38:38;18.58;;;10.98;;
15635;SDS011;7917;50.818;6.972;2023-02-08T02:41:17;19.77;;;10.68;;
15635;SDS011;7917;50.818;6.972;2023-02-08T02:44:06;19.15;;;10.32;;
15635;SDS011;7917;50.818;6.972;2023-02-08T02:46:40;18.45;;;10.27;;
15635;SDS011;7917;50.818;6.972;2023-02-08T02:52:18;20.30;;;11.60;;
15635;SDS011;7917;50.818;6.972;2023-02-08T02:54:52;18.45;;;10.73;;
15635;SDS011;7917;50.818;6.972;2023-02-08T02:57:47;20.05;;;9.95;;
15635;SDS011;7917;50.818;6.972;2023-02-08T03:03:22;17.13;;;10.65;;
15635;SDS011;7917;50.818;6.972;2023-02-08T03:05:52;20.08;;;11.07;;
15635;SDS011;7917;50.818;6.972;2023-02-08T03:08:26;19.92;;;10.93;;
15635;SDS011;7917;50.818;6.972;2023-02-08T03:11:15;21.85;;;10.98;;
15635;SDS011;7917;50.818;6.972;2023-02-08T03:17:06;25.90;;;11.27;;
15635;SDS011;7917;50.818;6.972;2023-02-08T03:19:50;18.90;;;10.70;;
15635;SDS011;7917;50.818;6.972;2023-02-08T03:22:24;22.88;;;12.07;;
15635;SDS011;7917;50.818;6.972;2023-02-08T03:24:58;22.10;;;11.63;;
15635;SDS011;7917;50.818;6.972;2023-02-08T03:27:29;19.52;;;11.18;;
15635;SDS011;7917;50.818;6.972;2023-02-08T03:30:00;24.05;;;12.07;;
15635;SDS011;7917;50.818;6.972;2023-02-08T03:32:35;26.27;;;11.55;;
15635;SDS011;7917;50.818;6.972;2023-02-08T03:35:09;20.33;;;11.45;;
15635;SDS011;7917;50.818;6.972;2023-02-08T03:37:41;20.70;;;11.75;;
15635;SDS011;7917;50.818;6.972;2023-02-08T03:40:28;21.17;;;10.85;;
15635;SDS011;7917;50.818;6.972;2023-02-08T03:43:02;20.45;;;11.50;;
15635;SDS011;7917;50.818;6.972;2023-02-08T03:45:37;21.20;;;11.82;;
15635;SDS011;7917;50.818;6.972;2023-02-08T03:48:07;22.23;;;11.32;;
15635;SDS011;7917;50.818;6.972;2023-02-08T03:53:26;19.98;;;11.10;;
15635;SDS011;7917;50.818;6.972;2023-02-08T03:55:57;22.08;;;12.82;;
15635;SDS011;7917;50.818;6.972;2023-02-08T03:58:30;20.67;;;11.60;;
15635;SDS011;7917;50.818;6.972;2023-02-08T04:01:16;19.02;;;10.93;;
15635;SDS011;7917;50.818;6.972;2023-02-08T04:03:48;18.65;;;11.18;;
15635;SDS011;7917;50.818;6.972;2023-02-08T04:06:18;23.92;;;11.68;;
15635;SDS011;7917;50.818;6.972;2023-02-08T04:08:45;19.15;;;11.20;;
15635;SDS011;7917;50.818;6.972;2023-02-08T04:11:12;20.15;;;10.82;;
15635;SDS011;7917;50.818;6.972;2023-02-08T04:13:38;24.40;;;11.52;;
15635;SDS011;7917;50.818;6.972;2023-02-08T04:16:06;24.23;;;11.80;;
15635;SDS011;7917;50.818;6.972;2023-02-08T04:18:36;19.80;;;10.57;;
15635;SDS011;7917;50.818;6.972;2023-02-08T04:21:03;21.45;;;9.93;;
15635;SDS011;7917;50.818;6.972;2023-02-08T04:23:30;20.65;;;10.50;;
15635;SDS011;7917;50.818;6.972;2023-02-08T04:25:57;18.55;;;10.38;;
15635;SDS011;7917;50.818;6.972;2023-02-08T04:28:23;24.73;;;13.73;;
15635;SDS011;7917;50.818;6.972;2023-02-08T04:30:50;18.17;;;10.98;;
15635;SDS011;7917;50.818;6.972;2023-02-08T04:33:21;18.83;;;10.80;;
15635;SDS011;7917;50.818;6.972;2023-02-08T04:35:48;26.52;;;11.30;;
15635;SDS011;7917;50.818;6.972;2023-02-08T04:38:14;19.45;;;10.23;;
15635;SDS011;7917;50.818;6.972;2023-02-08T04:40:41;19.15;;;11.35;;
15635;SDS011;7917;50.818;6.972;2023-02-08T04:43:09;20.05;;;10.90;;
15635;SDS011;7917;50.818;6.972;2023-02-08T04:45:35;20.48;;;11.32;;
15635;SDS011;7917;50.818;6.972;2023-02-08T04:48:02;22.23;;;10.95;;
15635;SDS011;7917;50.818;6.972;2023-02-08T04:50:31;18.85;;;10.73;;
15635;SDS011;7917;50.818;6.972;2023-02-08T04:53:00;22.90;;;12.43;;
15635;SDS011;7917;50.818;6.972;2023-02-08T04:55:27;20.45;;;11.35;;
15635;SDS011;7917;50.818;6.972;2023-02-08T04:57:53;19.27;;;11.52;;
15635;SDS011;7917;50.818;6.972;2023-02-08T05:00:20;21.80;;;11.48;;
15635;SDS011;7917;50.818;6.972;2023-02-08T05:02:47;20.52;;;11.70;;
15635;SDS011;7917;50.818;6.972;2023-02-08T05:05:17;20.45;;;11.35;;
15635;SDS011;7917;50.818;6.972;2023-02-08T05:07:44;21.02;;;11.90;;
15635;SDS011;7917;50.818;6.972;2023-02-08T05:10:10;25.25;;;11.85;;
15635;SDS011;7917;50.818;6.972;2023-02-08T05:12:37;20.45;;;12.07;;
15635;SDS011;7917;50.818;6.972;2023-02-08T05:15:04;22.00;;;11.18;;
15635;SDS011;7917;50.818;6.972;2023-02-08T05:17:32;25.48;;;12.50;;
15635;SDS011;7917;50.818;6.972;2023-02-08T05:19:58;22.20;;;11.18;;
15635;SDS011;7917;50.818;6.972;2023-02-08T05:22:25;23.85;;;13.70;;
15635;SDS011;7917;50.818;6.972;2023-02-08T05:24:51;23.38;;;11.93;;
15635;SDS011;7917;50.818;6.972;2023-02-08T05:27:17;21.63;;;12.05;;
15635;SDS011;7917;50.818;6.972;2023-02-08T05:29:44;25.73;;;12.27;;
15635;SDS011;7917;50.818;6.972;2023-02-08T05:32:11;20.88;;;11.73;;
15635;SDS011;7917;50.818;6.972;2023-02-08T05:34:38;20.02;;;11.90;;
15635;SDS011;7917;50.818;6.972;2023-02-08T05:37:05;24.35;;;12.10;;
15635;SDS011;7917;50.818;6.972;2023-02-08T05:39:38;25.80;;;12.02;;
15635;SDS011;7917;50.818;6.972;2023-02-08T05:42:04;22.40;;;11.68;;
15635;SDS011;7917;50.818;6.972;2023-02-08T05:44:31;21.35;;;11.38;;
15635;SDS011;7917;50.818;6.972;2023-02-08T05:46:57;22.63;;;12.88;;
15635;SDS011;7917;50.818;6.972;2023-02-08T05:49:24;21.70;;;12.18;;
15635;SDS011;7917;50.818;6.972;2023-02-08T05:51:52;23.30;;;13.05;;
15635;SDS011;7917;50.818;6.972;2023-02-08T05:54:18;22.83;;;12.77;;
15635;SDS011;7917;50.818;6.972;2023-02-08T05:56:45;22.63;;;12.60;;
15635;SDS011;7917;50.818;6.972;2023-02-08T05:59:14;20.80;;;11.88;;
15635;SDS011;7917;50.818;6.972;2023-02-08T06:01:40;24.25;;;13.07;;
15635;SDS011;7917;50.818;6.972;2023-02-08T06:04:08;25.08;;;13.05;;
15635;SDS011;7917;50.818;6.972;2023-02-08T06:06:34;23.35;;;13.18;;
15635;SDS011;7917;50.818;6.972;2023-02-08T06:09:02;21.65;;;12.35;;
15635;SDS011;7917;50.818;6.972;2023-02-08T06:11:29;27.90;;;13.38;;
15635;SDS011;7917;50.818;6.972;2023-02-08T06:13:56;23.83;;;13.38;;
15635;SDS011;7917;50.818;6.972;2023-02-08T06:16:23;23.25;;;12.82;;
15635;SDS011;7917;50.818;6.972;2023-02-08T06:18:50;21.70;;;12.32;;
15635;SDS011;7917;50.818;6.972;2023-02-08T06:21:17;25.48;;;13.82;;
15635;SDS011;7917;50.818;6.972;2023-02-08T06:23:43;23.27;;;12.63;;
15635;SDS011;7917;50.818;6.972;2023-02-08T06:26:11;25.38;;;13.45;;
15635;SDS011;7917;50.818;6.972;2023-02-08T06:28:37;21.85;;;13.13;;
15635;SDS011;7917;50.818;6.972;2023-02-08T06:31:04;21.98;;;13.23;;
15635;SDS011;7917;50.818;6.972;2023-02-08T06:33:31;28.20;;;12.68;;
15635;SDS011;7917;50.818;6.972;2023-02-08T06:35:57;23.20;;;12.63;;
15635;SDS011;7917;50.818;6.972;2023-02-08T06:38:24;23.73;;;12.82;;
15635;SDS011;7917;50.818;6.972;2023-02-08T06:40:51;25.40;;;13.23;;
15635;SDS011;7917;50.818;6.972;2023-02-08T06:43:18;25.67;;;13.13;;
15635;SDS011;7917;50.818;6.972;2023-02-08T06:45:46;21.15;;;13.15;;
15635;SDS011;7917;50.818;6.972;2023-02-08T06:48:12;24.95;;;13.13;;
15635;SDS011;7917;50.818;6.972;2023-02-08T06:50:39;24.42;;;13.00;;
15635;SDS011;7917;50.818;6.972;2023-02-08T06:53:06;29.65;;;14.45;;
15635;SDS011;7917;50.818;6.972;2023-02-08T06:55:32;25.42;;;13.05;;
15635;SDS011;7917;50.818;6.972;2023-02-08T06:57:59;23.88;;;13.45;;
15635;SDS011;7917;50.818;6.972;2023-02-08T07:00:26;27.77;;;15.65;;
15635;SDS011;7917;50.818;6.972;2023-02-08T07:02:53;29.10;;;14.70;;
15635;SDS011;7917;50.818;6.972;2023-02-08T07:05:20;27.38;;;13.90;;
15635;SDS011;7917;50.818;6.972;2023-02-08T07:07:46;25.33;;;14.43;;
15635;SDS011;7917;50.818;6.972;2023-02-08T07:10:13;24.95;;;13.50;;
15635;SDS011;7917;50.818;6.972;2023-02-08T07:12:40;25.95;;;14.90;;
15635;SDS011;7917;50.818;6.972;2023-02-08T07:15:06;28.20;;;14.60;;
15635;SDS011;7917;50.818;6.972;2023-02-08T07:17:35;30.33;;;15.38;;
15635;SDS011;7917;50.818;6.972;2023-02-08T07:20:05;25.80;;;14.43;;
15635;SDS011;7917;50.818;6.972;2023-02-08T07:22:32;25.40;;;13.30;;
15635;SDS011;7917;50.818;6.972;2023-02-08T07:24:59;27.40;;;13.75;;
15635;SDS011;7917;50.818;6.972;2023-02-08T07:27:25;25.30;;;13.40;;
15635;SDS011;7917;50.818;6.972;2023-02-08T07:29:52;24.38;;;13.80;;
15635;SDS011;7917;50.818;6.972;2023-02-08T07:32:19;24.02;;;13.35;;
15635;SDS011;7917;50.818;6.972;2023-02-08T07:34:47;23.50;;;12.98;;
15635;SDS011;7917;50.818;6.972;2023-02-08T07:37:13;28.63;;;13.90;;
15635;SDS011;7917;50.818;6.972;2023-02-08T07:39:40;27.10;;;13.68;;
15635;SDS011;7917;50.818;6.972;2023-02-08T07:42:07;24.05;;;15.48;;
15635;SDS011;7917;50.818;6.972;2023-02-08T07:44:40;22.92;;;12.77;;
15635;SDS011;7917;50.818;6.972;2023-02-08T07:47:08;25.45;;;13.40;;
15635;SDS011;7917;50.818;6.972;2023-02-08T07:49:35;24.00;;;13.65;;
15635;SDS011;7917;50.818;6.972;2023-02-08T07:52:02;25.52;;;13.77;;
15635;SDS011;7917;50.818;6.972;2023-02-08T07:54:28;21.38;;;12.10;;
15635;SDS011;7917;50.818;6.972;2023-02-08T07:56:55;23.25;;;12.20;;
15635;SDS011;7917;50.818;6.972;2023-02-08T07:59:22;25.23;;;13.52;;
15635;SDS011;7917;50.818;6.972;2023-02-08T08:01:48;23.73;;;13.02;;
15635;SDS011;7917;50.818;6.972;2023-02-08T08:04:16;25.50;;;13.27;;
15635;SDS011;7917;50.818;6.972;2023-02-08T08:06:43;22.83;;;11.77;;
15635;SDS011;7917;50.818;6.972;2023-02-08T08:09:11;26.63;;;13.57;;
15635;SDS011;7917;50.818;6.972;2023-02-08T08:11:39;22.92;;;11.98;;
15635;SDS011;7917;50.818;6.972;2023-02-08T08:14:05;19.52;;;12.05;;
15635;SDS011;7917;50.818;6.972;2023-02-08T08:16:32;24.30;;;12.48;;
15635;SDS011;7917;50.818;6.972;2023-02-08T08:18:59;22.58;;;11.90;;
15635;SDS011;7917;50.818;6.972;2023-02-08T08:21:25;20.40;;;11.60;;
15635;SDS011;7917;50.818;6.972;2023-02-08T08:23:51;24.02;;;12.88;;
15635;SDS011;7917;50.818;6.972;2023-02-08T08:26:20;22.25;;;11.63;;
15635;SDS011;7917;50.818;6.972;2023-02-08T08:28:47;20.40;;;10.85;;
15635;SDS011;7917;50.818;6.972;2023-02-08T08:31:14;20.88;;;12.02;;
15635;SDS011;7917;50.818;6.972;2023-02-08T08:33:42;25.27;;;11.70;;
15635;SDS011;7917;50.818;6.972;2023-02-08T08:36:09;21.25;;;12.20;;
15635;SDS011;7917;50.818;6.972;2023-02-08T08:38:36;19.05;;;10.98;;
15635;SDS011;7917;50.818;6.972;2023-02-08T08:41:05;18.60;;;11.57;;
15635;SDS011;7917;50.818;6.972;2023-02-08T08:43:33;20.15;;;11.13;;
15635;SDS011;7917;50.818;6.972;2023-02-08T08:45:59;21.90;;;10.90;;
15635;SDS011;7917;50.818;6.972;2023-02-08T08:48:26;18.45;;;11.50;;
15635;SDS011;7917;50.818;6.972;2023-02-08T08:50:52;17.55;;;10.25;;
15635;SDS011;7917;50.818;6.972;2023-02-08T08:53:19;17.13;;;10.38;;
15635;SDS011;7917;50.818;6.972;2023-02-08T08:55:47;20.58;;;10.23;;
15635;SDS011;7917;50.818;6.972;2023-02-08T08:58:14;16.52;;;9.80;;
15635;SDS011;7917;50.818;6.972;2023-02-08T09:00:43;19.63;;;11.00;;
15635;SDS011;7917;50.818;6.972;2023-02-08T09:03:10;20.05;;;9.90;;
15635;SDS011;7917;50.818;6.972;2023-02-08T09:05:36;16.08;;;10.15;;
15635;SDS011;7917;50.818;6.972;2023-02-08T09:08:03;17.27;;;10.32;;
15635;SDS011;7917;50.818;6.972;2023-02-08T09:10:30;17.38;;;10.18;;
15635;SDS011;7917;50.818;6.972;2023-02-08T09:12:57;17.58;;;10.32;;
15635;SDS011;7917;50.818;6.972;2023-02-08T09:15:24;15.13;;;9.55;;
15635;SDS011;7917;50.818;6.972;2023-02-08T09:17:51;16.95;;;10.05;;
15635;SDS011;7917;50.818;6.972;2023-02-08T09:20:18;16.77;;;9.82;;
15635;SDS011;7917;50.818;6.972;2023-02-08T09:22:45;17.13;;;9.68;;
15635;SDS011;7917;50.818;6.972;2023-02-08T09:25:12;16.35;;;9.10;;
15635;SDS011;7917;50.818;6.972;2023-02-08T09:27:39;13.27;;;9.05;;
15635;SDS011;7917;50.818;6.972;2023-02-08T09:30:05;15.68;;;9.73;;
15635;SDS011;7917;50.818;6.972;2023-02-08T09:32:33;14.00;;;9.23;;
15635;SDS011;7917;50.818;6.972;2023-02-08T09:35:01;17.52;;;9.68;;
15635;SDS011;7917;50.818;6.972;2023-02-08T09:37:28;16.20;;;9.75;;
15635;SDS011;7917;50.818;6.972;2023-02-08T09:39:55;17.10;;;9.93;;
15635;SDS011;7917;50.818;6.972;2023-02-08T09:42:26;14.27;;;10.23;;
15635;SDS011;7917;50.818;6.972;2023-02-08T09:47:57;18.30;;;9.38;;
15635;SDS011;7917;50.818;6.972;2023-02-08T09:50:31;14.52;;;8.98;;
15635;SDS011;7917;50.818;6.972;2023-02-08T09:53:02;14.70;;;8.68;;
15635;SDS011;7917;50.818;6.972;2023-02-08T09:55:33;17.58;;;9.57;;
15635;SDS011;7917;50.818;6.972;2023-02-08T09:58:03;13.95;;;8.55;;
15635;SDS011;7917;50.818;6.972;2023-02-08T10:00:39;17.80;;;9.30;;
15635;SDS011;7917;50.818;6.972;2023-02-08T10:03:07;14.32;;;8.30;;
15635;SDS011;7917;50.818;6.972;2023-02-08T10:05:49;13.43;;;8.77;;
15635;SDS011;7917;50.818;6.972;2023-02-08T10:08:16;12.82;;;8.57;;
15635;SDS011;7917;50.818;6.972;2023-02-08T10:10:45;14.57;;;9.13;;
15635;SDS011;7917;50.818;6.972;2023-02-08T10:13:23;18.70;;;9.60;;
15635;SDS011;7917;50.818;6.972;2023-02-08T10:16:00;20.17;;;9.95;;
15635;SDS011;7917;50.818;6.972;2023-02-08T10:18:39;19.05;;;8.98;;
15635;SDS011;7917;50.818;6.972;2023-02-08T10:21:20;15.70;;;8.68;;
15635;SDS011;7917;50.818;6.972;2023-02-08T10:24:12;12.63;;;8.25;;
15635;SDS011;7917;50.818;6.972;2023-02-08T10:26:57;21.95;;;9.65;;
15635;SDS011;7917;50.818;6.972;2023-02-08T10:29:34;12.57;;;8.63;;
15635;SDS011;7917;50.818;6.972;2023-02-08T10:32:26;13.48;;;8.27;;
15635;SDS011;7917;50.818;6.972;2023-02-08T10:35:04;15.23;;;8.77;;
15635;SDS011;7917;50.818;6.972;2023-02-08T10:37:37;13.35;;;8.07;;
15635;SDS011;7917;50.818;6.972;2023-02-08T10:40:13;17.48;;;9.10;;
15635;SDS011;7917;50.818;6.972;2023-02-08T10:42:50;17.25;;;8.95;;
15635;SDS011;7917;50.818;6.972;2023-02-08T10:45:23;22.10;;;9.48;;
15635;SDS011;7917;50.818;6.972;2023-02-08T10:47:54;17.50;;;9.45;;
15635;SDS011;7917;50.818;6.972;2023-02-08T10:50:28;14.13;;;8.70;;
15635;SDS011;7917;50.818;6.972;2023-02-08T10:52:59;13.18;;;8.95;;
15635;SDS011;7917;50.818;6.972;2023-02-08T10:55:26;16.33;;;9.25;;
15635;SDS011;7917;50.818;6.972;2023-02-08T10:57:56;18.42;;;8.75;;
15635;SDS011;7917;50.818;6.972;2023-02-08T11:00:26;11.60;;;8.50;;
15635;SDS011;7917;50.818;6.972;2023-02-08T11:02:55;19.80;;;8.80;;
15635;SDS011;7917;50.818;6.972;2023-02-08T11:05:30;13.18;;;9.45;;
15635;SDS011;7917;50.818;6.972;2023-02-08T11:08:06;12.32;;;7.90;;
15635;SDS011;7917;50.818;6.972;2023-02-08T11:10:34;17.35;;;9.30;;
15635;SDS011;7917;50.818;6.972;2023-02-08T11:13:03;14.55;;;8.90;;
15635;SDS011;7917;50.818;6.972;2023-02-08T11:15:38;14.57;;;8.90;;
15635;SDS011;7917;50.818;6.972;2023-02-08T11:18:14;13.43;;;8.77;;
15635;SDS011;7917;50.818;6.972;2023-02-08T11:20:46;13.27;;;7.97;;
15635;SDS011;7917;50.818;6.972;2023-02-08T11:23:19;13.70;;;7.65;;
15635;SDS011;7917;50.818;6.972;2023-02-08T11:25:49;15.30;;;8.32;;
15635;SDS011;7917;50.818;6.972;2023-02-08T11:28:21;12.90;;;8.35;;
15635;SDS011;7917;50.818;6.972;2023-02-08T11:30:56;14.30;;;8.15;;
15635;SDS011;7917;50.818;6.972;2023-02-08T11:33:24;10.43;;;7.45;;
15635;SDS011;7917;50.818;6.972;2023-02-08T11:35:56;12.20;;;7.93;;
15635;SDS011;7917;50.818;6.972;2023-02-08T11:38:30;10.93;;;7.60;;
15635;SDS011;7917;50.818;6.972;2023-02-08T11:41:00;11.82;;;7.55;;
15635;SDS011;7917;50.818;6.972;2023-02-08T11:43:30;9.65;;;7.03;;
15635;SDS011;7917;50.818;6.972;2023-02-08T11:45:58;11.05;;;7.05;;
15635;SDS011;7917;50.818;6.972;2023-02-08T11:48:25;10.27;;;6.80;;
15635;SDS011;7917;50.818;6.972;2023-02-08T11:50:59;11.68;;;7.03;;
15635;SDS011;7917;50.818;6.972;2023-02-08T11:53:28;10.60;;;7.15;;
15635;SDS011;7917;50.818;6.972;2023-02-08T11:56:02;10.50;;;7.20;;
15635;SDS011;7917;50.818;6.972;2023-02-08T11:58:31;13.15;;;7.07;;
15635;SDS011;7917;50.818;6.972;2023-02-08T12:00:58;15.75;;;8.43;;
15635;SDS011;7917;50.818;6.972;2023-02-08T12:03:27;12.48;;;8.43;;
15635;SDS011;7917;50.818;6.972;2023-02-08T12:06:01;11.57;;;7.88;;
15635;SDS011;7917;50.818;6.972;2023-02-08T12:08:49;11.05;;;7.20;;
15635;SDS011;7917;50.818;6.972;2023-02-08T12:11:24;14.93;;;8.38;;
15635;SDS011;7917;50.818;6.972;2023-02-08T12:16:55;12.98;;;7.70;;
15635;SDS011;7917;50.818;6.972;2023-02-08T12:19:34;12.93;;;7.82;;
15635;SDS011;7917;50.818;6.972;2023-02-08T12:22:26;12.68;;;7.28;;
15635;SDS011;7917;50.818;6.972;2023-02-08T12:24:57;13.25;;;7.63;;
15635;SDS011;7917;50.818;6.972;2023-02-08T12:27:39;10.30;;;7.07;;
15635;SDS011;7917;50.818;6.972;2023-02-08T12:30:15;11.85;;;7.00;;
15635;SDS011;7917;50.818;6.972;2023-02-08T12:32:57;11.35;;;7.07;;
15635;SDS011;7917;50.818;6.972;2023-02-08T12:38:39;10.35;;;6.50;;
15635;SDS011;7917;50.818;6.972;2023-02-08T12:41:45;8.35;;;6.35;;
15635;SDS011;7917;50.818;6.972;2023-02-08T12:44:24;8.60;;;5.63;;
15635;SDS011;7917;50.818;6.972;2023-02-08T12:47:00;10.63;;;6.50;;
15635;SDS011;7917;50.818;6.972;2023-02-08T12:49:42;9.85;;;6.72;;
15635;SDS011;7917;50.818;6.972;2023-02-08T12:52:30;9.30;;;5.82;;
15635;SDS011;7917;50.818;6.972;2023-02-08T12:55:03;8.52;;;5.72;;
15635;SDS011;7917;50.818;6.972;2023-02-08T12:57:38;6.90;;;5.00;;
15635;SDS011;7917;50.818;6.972;2023-02-08T13:00:14;7.15;;;4.80;;
15635;SDS011;7917;50.818;6.972;2023-02-08T13:02:45;6.22;;;4.85;;
15635;SDS011;7917;50.818;6.972;2023-02-08T13:05:21;9.55;;;5.00;;
15635;SDS011;7917;50.818;6.972;2023-02-08T13:07:54;8.63;;;5.00;;
15635;SDS011;7917;50.818;6.972;2023-02-08T13:10:28;9.57;;;4.63;;
15635;SDS011;7917;50.818;6.972;2023-02-08T13:13:03;6.75;;;4.55;;
15635;SDS011;7917;50.818;6.972;2023-02-08T13:15:37;7.72;;;5.10;;
15635;SDS011;7917;50.818;6.972;2023-02-08T13:18:10;6.72;;;4.57;;
15635;SDS011;7917;50.818;6.972;2023-02-08T13:20:43;8.90;;;4.95;;
15635;SDS011;7917;50.818;6.972;2023-02-08T13:23:14;7.75;;;4.80;;
15635;SDS011;7917;50.818;6.972;2023-02-08T13:25:46;9.18;;;5.80;;
15635;SDS011;7917;50.818;6.972;2023-02-08T13:28:17;7.90;;;4.97;;
15635;SDS011;7917;50.818;6.972;2023-02-08T13:30:45;7.88;;;5.20;;
15635;SDS011;7917;50.818;6.972;2023-02-08T13:33:22;6.65;;;4.60;;
15635;SDS011;7917;50.818;6.972;2023-02-08T13:35:55;6.50;;;4.82;;
15635;SDS011;7917;50.818;6.972;2023-02-08T13:38:24;6.72;;;4.85;;
15635;SDS011;7917;50.818;6.972;2023-02-08T13:41:06;8.35;;;4.90;;
15635;SDS011;7917;50.818;6.972;2023-02-08T13:43:42;7.82;;;5.00;;
15635;SDS011;7917;50.818;6.972;2023-02-08T13:46:15;9.30;;;4.22;;
15635;SDS011;7917;50.818;6.972;2023-02-08T13:48:45;11.27;;;4.90;;
15635;SDS011;7917;50.818;6.972;2023-02-08T13:54:17;8.25;;;4.72;;
15635;SDS011;7917;50.818;6.972;2023-02-08T13:56:45;7.80;;;4.40;;
15635;SDS011;7917;50.818;6.972;2023-02-08T14:02:19;6.20;;;3.95;;
15635;SDS011;7917;50.818;6.972;2023-02-08T14:04:48;8.82;;;4.38;;
15635;SDS011;7917;50.818;6.972;2023-02-08T14:07:22;8.38;;;4.20;;
15635;SDS011;7917;50.818;6.972;2023-02-08T14:10:02;8.30;;;5.40;;
15635;SDS011;7917;50.818;6.972;2023-02-08T14:12:35;5.18;;;4.10;;
15635;SDS011;7917;50.818;6.972;2023-02-08T14:15:14;7.43;;;4.05;;
15635;SDS011;7917;50.818;6.972;2023-02-08T14:17:50;8.10;;;3.70;;
15635;SDS011;7917;50.818;6.972;2023-02-08T14:20:20;4.75;;;3.67;;
15635;SDS011;7917;50.818;6.972;2023-02-08T14:22:52;5.82;;;3.67;;
15635;SDS011;7917;50.818;6.972;2023-02-08T14:25:21;7.85;;;4.05;;
15635;SDS011;7917;50.818;6.972;2023-02-08T14:27:50;6.25;;;4.07;;
15635;SDS011;7917;50.818;6.972;2023-02-08T14:30:22;7.07;;;4.00;;
15635;SDS011;7917;50.818;6.972;2023-02-08T14:32:52;6.40;;;4.30;;
15635;SDS011;7917;50.818;6.972;2023-02-08T14:35:37;4.95;;;3.47;;
15635;SDS011;7917;50.818;6.972;2023-02-08T14:41:15;10.48;;;4.20;;
15635;SDS011;7917;50.818;6.972;2023-02-08T14:50:55;5.60;;;3.80;;
15635;SDS011;7917;50.818;6.972;2023-02-08T14:53:42;6.70;;;4.20;;
15635;SDS011;7917;50.818;6.972;2023-02-08T14:56:15;6.40;;;3.92;;
15635;SDS011;7917;50.818;6.972;2023-02-08T14:58:48;6.22;;;4.45;;
15635;SDS011;7917;50.818;6.972;2023-02-08T15:01:17;7.88;;;4.13;;
15635;SDS011;7917;50.818;6.972;2023-02-08T15:03:46;7.20;;;3.63;;
15635;SDS011;7917;50.818;6.972;2023-02-08T15:09:15;6.72;;;4.22;;
15635;SDS011;7917;50.818;6.972;2023-02-08T15:11:47;8.23;;;4.60;;
15635;SDS011;7917;50.818;6.972;2023-02-08T15:14:18;7.30;;;4.60;;
15635;SDS011;7917;50.818;6.972;2023-02-08T15:16:46;6.25;;;4.45;;
15635;SDS011;7917;50.818;6.972;2023-02-08T15:19:19;7.65;;;4.95;;
15635;SDS011;7917;50.818;6.972;2023-02-08T15:21:49;7.82;;;5.20;;
15635;SDS011;7917;50.818;6.972;2023-02-08T15:24:17;6.45;;;4.80;;
15635;SDS011;7917;50.818;6.972;2023-02-08T15:26:49;7.82;;;5.45;;
15635;SDS011;7917;50.818;6.972;2023-02-08T15:29:18;8.82;;;5.22;;
15635;SDS011;7917;50.818;6.972;2023-02-08T15:31:46;8.10;;;5.05;;
15635;SDS011;7917;50.818;6.972;2023-02-08T15:34:17;7.57;;;5.13;;
15635;SDS011;7917;50.818;6.972;2023-02-08T15:36:47;7.13;;;4.88;;
15635;SDS011;7917;50.818;6.972;2023-02-08T15:39:22;11.02;;;5.70;;
15635;SDS011;7917;50.818;6.972;2023-02-08T15:41:57;8.13;;;5.20;;
15635;SDS011;7917;50.818;6.972;2023-02-08T15:44:24;12.70;;;5.80;;
15635;SDS011;7917;50.818;6.972;2023-02-08T15:46:54;9.80;;;5.43;;
15635;SDS011;7917;50.818;6.972;2023-02-08T15:49:26;9.18;;;6.57;;
15635;SDS011;7917;50.818;6.972;2023-02-08T15:51:56;14.27;;;6.63;;